createdAt,value
2019-04-22T00:00:26.037Z,15.05
2019-04-22T00:01:25.938Z,15.04
2019-04-22T00:02:22.420Z,15.04
2019-04-22T00:03:27.374Z,15.02
2019-04-22T00:04:34.087Z,15.00
2019-04-22T00:05:45.595Z,14.97
2019-04-22T00:06:48.382Z,14.97
2019-04-22T00:07:46.321Z,14.96
2019-04-22T00:08:43.936Z,14.93
2019-04-22T00:09:46.143Z,14.94
2019-04-22T00:10:51.970Z,14.93
2019-04-22T00:11:49.819Z,14.93
2019-04-22T00:12:49.982Z,14.92
2019-04-22T00:14:40.580Z,14.92
2019-04-22T00:15:41.916Z,14.92
2019-04-22T00:16:55.059Z,14.90
2019-04-22T00:17:56.985Z,14.89
2019-04-22T00:19:01.681Z,14.90
2019-04-22T00:19:52.316Z,14.89
2019-04-22T00:20:50.170Z,14.89
2019-04-22T00:21:50.209Z,14.89
2019-04-22T00:22:44.393Z,14.87
2019-04-22T00:23:50.014Z,14.86
2019-04-22T00:24:44.545Z,14.82
2019-04-22T00:25:50.766Z,14.82
2019-04-22T00:26:50.208Z,14.82
2019-04-22T00:27:47.724Z,14.81
2019-04-22T00:28:52.173Z,14.79
2019-04-22T00:30:05.347Z,14.79
2019-04-22T00:30:47.086Z,14.78
2019-04-22T00:31:51.718Z,14.74
2019-04-22T00:32:41.801Z,14.73
2019-04-22T00:34:42.583Z,14.73
2019-04-22T00:35:41.967Z,14.70
2019-04-22T00:36:41.650Z,14.68
2019-04-22T00:37:49.229Z,14.68
2019-04-22T00:38:44.166Z,14.67
2019-04-22T00:39:46.407Z,14.66
2019-04-22T00:40:46.075Z,14.63
2019-04-22T00:41:50.773Z,14.63
2019-04-22T00:42:47.624Z,14.62
2019-04-22T00:43:52.952Z,14.59
2019-04-22T00:44:47.046Z,14.58
2019-04-22T00:45:45.933Z,14.56
2019-04-22T00:46:46.327Z,14.55
2019-04-22T00:47:43.379Z,14.55
2019-04-22T00:48:53.253Z,14.53
2019-04-22T00:50:14.057Z,14.53
2019-04-22T00:50:51.874Z,14.52
2019-04-22T00:51:52.686Z,14.51
2019-04-22T00:52:50.887Z,14.49
2019-04-22T00:53:48.083Z,14.48
2019-04-22T00:54:50.682Z,14.45
2019-04-22T00:55:50.771Z,14.44
2019-04-22T00:56:40.625Z,14.43
2019-04-22T00:57:52.117Z,14.43
2019-04-22T00:59:46.862Z,14.41
2019-04-22T01:00:48.681Z,14.41
2019-04-22T01:01:47.109Z,14.41
2019-04-22T01:02:47.709Z,14.40
2019-04-22T01:03:50.171Z,14.38
2019-04-22T01:04:46.509Z,14.36
2019-04-22T01:05:51.128Z,14.34
2019-04-22T01:06:45.918Z,14.34
2019-04-22T01:07:46.415Z,14.34
2019-04-22T01:08:53.046Z,14.34
2019-04-22T01:09:52.149Z,14.34
2019-04-22T01:10:46.824Z,14.34
2019-04-22T01:11:50.530Z,14.36
2019-04-22T01:12:44.051Z,14.36
2019-04-22T01:13:46.937Z,14.36
2019-04-22T01:14:52.011Z,14.36
2019-04-22T01:16:09.116Z,14.37
2019-04-22T01:16:48.885Z,14.37
2019-04-22T01:17:44.757Z,14.38
2019-04-22T01:18:42.315Z,14.38
2019-04-22T01:19:51.013Z,14.38
2019-04-22T01:21:43.840Z,14.40
2019-04-22T01:22:38.341Z,14.40
2019-04-22T01:23:41.121Z,14.40
2019-04-22T01:24:38.828Z,14.40
2019-04-22T01:25:41.806Z,14.40
2019-04-22T01:26:36.283Z,14.38
2019-04-22T01:27:37.836Z,14.38
2019-04-22T01:28:38.724Z,14.38
2019-04-22T01:29:37.222Z,14.37
2019-04-22T01:30:28.731Z,14.38
2019-04-22T01:31:25.324Z,14.38
2019-04-22T01:32:27.347Z,14.36
2019-04-22T01:33:28.593Z,14.34
2019-04-22T01:34:36.449Z,14.30
2019-04-22T01:35:35.107Z,14.28
2019-04-22T01:36:42.797Z,14.26
2019-04-22T01:37:44.356Z,14.26
2019-04-22T01:38:45.474Z,14.25
2019-04-22T01:39:43.630Z,14.22
2019-04-22T01:40:50.756Z,14.23
2019-04-22T01:42:54.033Z,14.26
2019-04-22T01:43:54.440Z,14.28
2019-04-22T01:44:45.385Z,14.30
2019-04-22T01:45:45.045Z,14.28
2019-04-22T01:46:47.370Z,14.30
2019-04-22T01:47:43.947Z,14.28
2019-04-22T01:48:47.747Z,14.28
2019-04-22T01:49:46.419Z,14.23
2019-04-22T01:50:48.440Z,14.23
2019-04-22T01:52:46.994Z,14.20
2019-04-22T01:53:56.524Z,14.19
2019-04-22T01:54:52.547Z,14.20
2019-04-22T01:55:43.892Z,14.18
2019-04-22T01:56:48.392Z,14.16
2019-04-22T01:57:41.939Z,14.16
2019-04-22T01:58:38.236Z,14.13
2019-04-22T01:59:37.072Z,14.13
2019-04-22T02:00:51.071Z,14.11
2019-04-22T02:01:52.829Z,14.11
2019-04-22T02:02:48.732Z,14.08
2019-04-22T02:03:46.835Z,14.07
2019-04-22T02:04:57.901Z,14.05
2019-04-22T02:05:46.860Z,14.04
2019-04-22T02:06:50.910Z,14.04
2019-04-22T02:07:44.506Z,14.04
2019-04-22T02:09:49.735Z,14.05
2019-04-22T02:10:49.359Z,14.07
2019-04-22T02:11:57.091Z,14.08
2019-04-22T02:12:48.374Z,14.11
2019-04-22T02:13:53.760Z,14.12
2019-04-22T02:14:44.343Z,14.12
2019-04-22T02:15:47.758Z,14.12
2019-04-22T02:16:50.309Z,14.08
2019-04-22T02:17:53.145Z,14.08
2019-04-22T02:18:44.879Z,14.07
2019-04-22T02:20:45.469Z,14.05
2019-04-22T02:21:42.547Z,14.07
2019-04-22T02:23:08.037Z,14.05
2019-04-22T02:24:46.812Z,14.05
2019-04-22T02:25:51.046Z,14.07
2019-04-22T02:26:47.025Z,14.05
2019-04-22T02:27:45.994Z,14.04
2019-04-22T02:28:46.112Z,14.03
2019-04-22T02:29:47.340Z,14.01
2019-04-22T02:31:01.860Z,14.01
2019-04-22T02:31:48.994Z,14.00
2019-04-22T02:33:08.187Z,14.00
2019-04-22T02:35:01.469Z,13.98
2019-04-22T02:36:18.651Z,13.98
2019-04-22T02:37:06.999Z,13.98
2019-04-22T02:37:45.442Z,13.97
2019-04-22T02:39:07.118Z,13.98
2019-04-22T02:39:52.882Z,13.97
2019-04-22T02:41:06.751Z,13.94
2019-04-22T02:41:55.054Z,13.93
2019-04-22T02:42:51.859Z,13.94
2019-04-22T02:44:12.116Z,13.94
2019-04-22T02:44:58.106Z,13.94
2019-04-22T02:46:10.614Z,13.93
2019-04-22T02:47:50.550Z,13.94
2019-04-22T02:49:01.860Z,13.95
2019-04-22T02:49:45.055Z,13.95
2019-04-22T02:50:56.314Z,13.97
2019-04-22T02:51:43.262Z,13.95
2019-04-22T02:52:43.313Z,13.94
2019-04-22T02:55:00.312Z,13.94
2019-04-22T02:59:03.911Z,13.94
2019-04-22T03:00:58.905Z,13.95
2019-04-22T03:03:04.052Z,13.95
2019-04-22T03:04:45.663Z,13.94
2019-04-22T03:05:56.243Z,13.94
2019-04-22T03:09:51.065Z,13.87
2019-04-22T03:10:56.482Z,13.87
2019-04-22T03:11:59.325Z,13.86
2019-04-22T03:13:09.428Z,13.87
2019-04-22T03:13:55.621Z,13.87
2019-04-22T03:15:06.215Z,13.87
2019-04-22T03:16:02.588Z,13.89
2019-04-22T03:17:58.481Z,13.91
2019-04-22T03:18:59.426Z,13.91
2019-04-22T03:20:02.746Z,13.89
2019-04-22T03:20:58.034Z,13.89
2019-04-22T03:21:46.559Z,13.86
2019-04-22T03:22:55.751Z,13.85
2019-04-22T03:24:08.779Z,13.85
2019-04-22T03:25:40.912Z,13.82
2019-04-22T03:26:50.403Z,13.82
2019-04-22T03:28:51.265Z,13.82
2019-04-22T03:30:18.848Z,13.82
2019-04-22T03:31:04.174Z,13.80
2019-04-22T03:32:12.835Z,13.82
2019-04-22T03:34:21.989Z,13.80
2019-04-22T03:35:55.575Z,13.79
2019-04-22T03:37:10.859Z,13.78
2019-04-22T03:39:06.143Z,13.76
2019-04-22T03:40:52.692Z,13.76
2019-04-22T03:42:56.039Z,13.75
2019-04-22T03:44:10.879Z,13.75
2019-04-22T03:44:54.624Z,13.73
2019-04-22T03:46:02.087Z,13.75
2019-04-22T03:47:02.763Z,13.76
2019-04-22T03:48:58.581Z,13.76
2019-04-22T03:49:56.377Z,13.76
2019-04-22T03:50:51.859Z,13.76
2019-04-22T03:52:05.859Z,13.78
2019-04-22T03:52:53.147Z,13.76
2019-04-22T03:53:56.494Z,13.76
2019-04-22T03:57:18.370Z,13.71
2019-04-22T03:57:50.320Z,13.67
2019-04-22T03:58:58.758Z,13.67
2019-04-22T04:00:08.493Z,13.64
2019-04-22T04:00:47.476Z,13.64
2019-04-22T04:01:55.369Z,13.61
2019-04-22T04:04:07.136Z,13.58
2019-04-22T04:04:50.497Z,13.57
2019-04-22T04:05:58.945Z,13.54
2019-04-22T04:07:01.948Z,13.54
2019-04-22T04:08:00.766Z,13.54
2019-04-22T04:08:51.256Z,13.52
2019-04-22T04:09:50.084Z,13.49
2019-04-22T04:11:59.891Z,13.50
2019-04-22T04:13:57.959Z,13.49
2019-04-22T04:14:54.895Z,13.47
2019-04-22T04:15:40.703Z,13.46
2019-04-22T04:16:56.255Z,13.45
2019-04-22T04:17:51.569Z,13.43
2019-04-22T04:19:07.131Z,13.43
2019-04-22T04:21:55.195Z,13.42
2019-04-22T04:24:01.265Z,13.40
2019-04-22T04:25:25.476Z,13.39
2019-04-22T04:25:46.599Z,13.39
2019-04-22T04:27:02.634Z,13.39
2019-04-22T04:28:22.917Z,13.39
2019-04-22T04:29:05.961Z,13.37
2019-04-22T04:30:45.993Z,13.39
2019-04-22T04:31:58.269Z,13.37
2019-04-22T04:32:52.452Z,13.39
2019-04-22T04:34:55.869Z,13.37
2019-04-22T04:36:02.627Z,13.37
2019-04-22T04:36:54.859Z,13.39
2019-04-22T04:37:52.251Z,13.39
2019-04-22T04:38:51.873Z,13.39
2019-04-22T04:40:04.741Z,13.40
2019-04-22T04:41:06.135Z,13.39
2019-04-22T04:41:54.365Z,13.39
2019-04-22T04:43:05.420Z,13.36
2019-04-22T04:43:59.712Z,13.39
2019-04-22T04:46:02.901Z,13.39
2019-04-22T04:46:59.150Z,13.39
2019-04-22T04:49:16.181Z,13.40
2019-04-22T04:49:54.391Z,13.40
2019-04-22T04:50:58.580Z,13.37
2019-04-22T04:51:49.129Z,13.37
2019-04-22T04:53:02.598Z,13.39
2019-04-22T04:54:01.243Z,13.40
2019-04-22T04:55:46.531Z,13.40
2019-04-22T04:56:46.973Z,13.42
2019-04-22T04:58:04.561Z,13.42
2019-04-22T05:01:03.226Z,13.43
2019-04-22T05:02:52.975Z,13.47
2019-04-22T05:05:47.689Z,13.52
2019-04-22T05:07:48.469Z,13.54
2019-04-22T05:09:46.969Z,13.50
2019-04-22T05:14:05.613Z,13.47
2019-04-22T05:14:46.806Z,13.47
2019-04-22T05:16:07.235Z,13.46
2019-04-22T05:16:47.733Z,13.47
2019-04-22T05:17:55.056Z,13.49
2019-04-22T05:18:52.799Z,13.50
2019-04-22T05:19:37.769Z,13.52
2019-04-22T05:21:11.154Z,13.54
2019-04-22T05:21:46.971Z,13.54
2019-04-22T05:23:45.361Z,13.55
2019-04-22T05:24:42.507Z,13.58
2019-04-22T05:25:41.054Z,13.60
2019-04-22T05:27:45.321Z,13.62
2019-04-22T05:28:44.825Z,13.62
2019-04-22T05:30:00.232Z,13.64
2019-04-22T05:30:40.649Z,13.67
2019-04-22T05:31:45.454Z,13.65
2019-04-22T05:32:46.225Z,13.68
2019-04-22T05:33:46.237Z,13.68
2019-04-22T05:34:48.755Z,13.70
2019-04-22T05:35:44.389Z,13.70
2019-04-22T05:36:41.361Z,13.73
2019-04-22T05:37:45.764Z,13.75
2019-04-22T05:38:49.415Z,13.76
2019-04-22T05:39:47.020Z,13.79
2019-04-22T05:40:34.763Z,13.82
2019-04-22T05:41:41.433Z,13.85
2019-04-22T05:42:43.923Z,13.89
2019-04-22T05:43:42.578Z,13.93
2019-04-22T05:44:45.789Z,13.95
2019-04-22T05:45:40.515Z,13.97
2019-04-22T05:46:42.271Z,14.00
2019-04-22T05:47:44.406Z,14.04
2019-04-22T05:48:47.372Z,14.07
2019-04-22T05:49:45.777Z,14.08
2019-04-22T05:50:45.349Z,14.13
2019-04-22T05:51:43.670Z,14.18
2019-04-22T05:52:43.104Z,14.20
2019-04-22T05:53:41.867Z,14.23
2019-04-22T05:54:38.749Z,14.26
2019-04-22T05:55:52.152Z,14.31
2019-04-22T05:57:37.234Z,14.38
2019-04-22T05:58:46.436Z,14.43
2019-04-22T05:59:48.656Z,14.45
2019-04-22T06:01:12.753Z,14.51
2019-04-22T06:01:52.257Z,14.53
2019-04-22T06:03:46.100Z,14.62
2019-04-22T06:04:48.404Z,14.63
2019-04-22T06:05:41.725Z,14.66
2019-04-22T06:06:36.970Z,14.71
2019-04-22T06:07:38.639Z,14.73
2019-04-22T06:08:44.437Z,14.78
2019-04-22T06:09:43.382Z,14.82
2019-04-22T06:11:33.411Z,14.92
2019-04-22T06:12:31.483Z,14.96
2019-04-22T06:13:33.069Z,14.99
2019-04-22T06:14:39.800Z,15.02
2019-04-22T06:15:40.356Z,15.08
2019-04-22T06:16:44.315Z,15.10
2019-04-22T06:17:49.257Z,15.14
2019-04-22T06:18:40.940Z,15.18
2019-04-22T06:19:44.641Z,15.19
2019-04-22T06:20:49.783Z,15.23
2019-04-22T06:21:44.398Z,15.25
2019-04-22T06:22:50.428Z,15.29
2019-04-22T06:23:46.818Z,15.33
2019-04-22T06:24:42.308Z,15.36
2019-04-22T06:27:41.639Z,15.45
2019-04-22T06:28:48.464Z,15.48
2019-04-22T06:29:39.963Z,15.52
2019-04-22T06:30:43.194Z,15.54
2019-04-22T06:32:03.800Z,15.59
2019-04-22T06:32:40.077Z,15.63
2019-04-22T06:33:43.763Z,15.67
2019-04-22T06:34:42.063Z,15.70
2019-04-22T06:35:45.690Z,15.75
2019-04-22T06:36:47.782Z,15.78
2019-04-22T06:37:43.332Z,15.84
2019-04-22T06:38:40.392Z,15.87
2019-04-22T06:39:39.635Z,15.92
2019-04-22T06:41:40.306Z,16.00
2019-04-22T06:42:44.127Z,16.05
2019-04-22T06:43:38.509Z,16.10
2019-04-22T06:44:43.057Z,16.16
2019-04-22T06:45:41.648Z,16.18
2019-04-22T06:46:43.312Z,16.25
2019-04-22T06:47:50.986Z,16.24
2019-04-22T06:49:01.345Z,16.28
2019-04-22T06:49:43.816Z,16.31
2019-04-22T06:50:43.338Z,16.37
2019-04-22T06:51:37.541Z,16.40
2019-04-22T06:52:38.236Z,16.44
2019-04-22T06:53:43.868Z,16.46
2019-04-22T06:54:45.464Z,16.49
2019-04-22T06:55:41.426Z,16.51
2019-04-22T06:56:42.734Z,16.51
2019-04-22T06:57:44.989Z,16.57
2019-04-22T06:58:40.538Z,16.64
2019-04-22T06:59:45.729Z,16.69
2019-04-22T07:00:42.837Z,16.73
2019-04-22T07:01:43.136Z,16.76
2019-04-22T07:02:56.419Z,16.80
2019-04-22T07:04:41.953Z,16.84
2019-04-22T07:05:43.793Z,16.86
2019-04-22T07:06:56.853Z,16.92
2019-04-22T07:07:40.041Z,16.95
2019-04-22T07:09:09.364Z,16.99
2019-04-22T07:09:46.821Z,17.04
2019-04-22T07:10:42.030Z,17.09
2019-04-22T07:11:36.041Z,17.13
2019-04-22T07:12:41.772Z,17.19
2019-04-22T07:13:43.954Z,17.19
2019-04-22T07:14:47.269Z,17.22
2019-04-22T07:16:44.663Z,17.30
2019-04-22T07:17:45.471Z,17.34
2019-04-22T07:18:44.898Z,17.37
2019-04-22T07:19:39.689Z,17.41
2019-04-22T07:20:44.501Z,17.44
2019-04-22T07:22:41.800Z,17.49
2019-04-22T07:23:55.575Z,17.54
2019-04-22T07:25:40.677Z,17.59
2019-04-22T07:26:42.448Z,17.60
2019-04-22T07:27:43.505Z,17.65
2019-04-22T07:28:37.171Z,17.71
2019-04-22T07:29:40.381Z,17.73
2019-04-22T07:30:41.300Z,17.76
2019-04-22T07:31:43.137Z,17.79
2019-04-22T07:32:57.867Z,17.82
2019-04-22T07:34:41.172Z,17.82
2019-04-22T07:35:45.968Z,17.86
2019-04-22T07:36:59.278Z,17.88
2019-04-22T07:38:36.152Z,17.94
2019-04-22T07:39:43.992Z,17.97
2019-04-22T07:40:43.965Z,18.00
2019-04-22T07:41:43.174Z,18.02
2019-04-22T07:44:44.950Z,18.15
2019-04-22T07:45:44.258Z,18.16
2019-04-22T07:46:41.453Z,18.21
2019-04-22T07:50:50.691Z,18.39
2019-04-22T07:51:49.626Z,18.48
2019-04-22T07:52:43.031Z,18.55
2019-04-22T07:53:45.546Z,18.63
2019-04-22T07:54:41.632Z,18.70
2019-04-22T07:55:39.631Z,18.78
2019-04-22T07:56:36.795Z,18.82
2019-04-22T07:57:39.273Z,18.88
2019-04-22T07:58:55.663Z,18.96
2019-04-22T07:59:43.645Z,19.00
2019-04-22T08:00:38.540Z,19.09
2019-04-22T08:01:39.795Z,19.16
2019-04-22T08:02:44.151Z,19.20
2019-04-22T08:03:51.661Z,19.22
2019-04-22T08:05:58.659Z,19.23
2019-04-22T08:06:47.791Z,19.24
2019-04-22T08:07:46.751Z,19.24
2019-04-22T08:08:38.919Z,19.24
2019-04-22T08:09:47.893Z,19.27
2019-04-22T08:10:45.509Z,19.30
2019-04-22T08:11:51.204Z,19.38
2019-04-22T08:13:41.077Z,19.60
2019-04-22T08:14:40.706Z,19.71
2019-04-22T08:15:58.262Z,19.84
2019-04-22T08:16:43.747Z,19.99
2019-04-22T08:18:39.065Z,20.17
2019-04-22T08:19:41.912Z,20.22
2019-04-22T08:20:41.072Z,20.29
2019-04-22T08:21:38.356Z,20.34
2019-04-22T08:22:48.575Z,20.48
2019-04-22T08:23:46.404Z,20.52
2019-04-22T08:24:41.793Z,20.50
2019-04-22T08:25:38.887Z,20.49
2019-04-22T08:26:38.213Z,20.52
2019-04-22T08:27:33.330Z,20.37
2019-04-22T08:28:46.292Z,20.33
2019-04-22T08:29:46.992Z,20.34
2019-04-22T08:30:41.413Z,20.40
2019-04-22T08:31:41.719Z,20.49
2019-04-22T08:32:41.595Z,20.52
2019-04-22T08:33:39.826Z,20.64
2019-04-22T08:34:39.706Z,20.63
2019-04-22T08:35:52.409Z,20.60
2019-04-22T08:37:10.277Z,20.58
2019-04-22T08:38:50.458Z,20.42
2019-04-22T08:39:35.965Z,20.56
2019-04-22T08:40:43.232Z,20.78
2019-04-22T08:43:51.437Z,21.43
2019-04-22T08:45:03.169Z,21.56
2019-04-22T08:45:46.449Z,21.62
2019-04-22T08:46:40.498Z,21.69
2019-04-22T08:48:36.735Z,21.84
2019-04-22T08:49:42.461Z,22.07
2019-04-22T08:50:39.482Z,22.19
2019-04-22T08:51:35.608Z,22.33
2019-04-22T08:52:42.150Z,22.61
2019-04-22T08:53:48.152Z,22.74
2019-04-22T08:54:36.196Z,22.95
2019-04-22T08:55:47.877Z,23.21
2019-04-22T08:56:38.856Z,23.56
2019-04-22T08:58:40.157Z,23.73
2019-04-22T08:59:37.421Z,23.49
2019-04-22T09:00:44.200Z,23.16
2019-04-22T09:01:49.386Z,22.81
2019-04-22T09:02:38.643Z,22.62
2019-04-22T09:03:40.098Z,22.56
2019-04-22T09:04:39.193Z,22.68
2019-04-22T09:07:07.522Z,23.01
2019-04-22T09:07:37.014Z,23.11
2019-04-22T09:08:42.293Z,23.08
2019-04-22T09:10:45.176Z,22.92
2019-04-22T09:11:42.626Z,22.80
2019-04-22T09:12:51.886Z,22.71
2019-04-22T09:13:45.394Z,22.62
2019-04-22T09:14:41.628Z,22.67
2019-04-22T09:17:02.260Z,23.39
2019-04-22T09:17:41.317Z,23.79
2019-04-22T09:18:45.946Z,23.88
2019-04-22T09:19:34.097Z,23.91
2019-04-22T09:20:40.336Z,24.03
2019-04-22T09:21:37.784Z,24.04
2019-04-22T09:22:42.658Z,24.03
2019-04-22T09:23:44.466Z,24.13
2019-04-22T09:24:43.422Z,24.36
2019-04-22T09:25:44.072Z,24.55
2019-04-22T09:26:43.621Z,24.79
2019-04-22T09:28:44.348Z,25.70
2019-04-22T09:29:41.165Z,26.19
2019-04-22T09:30:41.547Z,26.68
2019-04-22T09:31:50.297Z,27.05
2019-04-22T09:33:38.249Z,27.90
2019-04-22T09:34:40.170Z,28.09
2019-04-22T09:35:45.074Z,28.25
2019-04-22T09:36:44.322Z,28.43
2019-04-22T09:37:48.038Z,28.43
2019-04-22T09:39:41.031Z,28.16
2019-04-22T09:40:39.089Z,28.30
2019-04-22T09:41:43.344Z,28.33
2019-04-22T09:43:47.172Z,28.08
2019-04-22T09:44:40.332Z,28.08
2019-04-22T09:45:35.818Z,27.83
2019-04-22T09:46:41.227Z,27.57
2019-04-22T09:48:43.872Z,27.33
2019-04-22T09:49:51.924Z,26.93
2019-04-22T09:50:44.846Z,26.61
2019-04-22T09:51:37.162Z,26.44
2019-04-22T09:52:42.078Z,26.33
2019-04-22T09:53:47.210Z,26.22
2019-04-22T09:54:47.757Z,26.03
2019-04-22T09:55:37.593Z,25.88
2019-04-22T09:57:38.150Z,26.23
2019-04-22T09:58:39.547Z,26.45
2019-04-22T09:59:43.343Z,26.63
2019-04-22T10:00:42.920Z,26.53
2019-04-22T10:02:08.458Z,26.39
2019-04-22T10:02:40.751Z,26.24
2019-04-22T10:03:44.958Z,26.31
2019-04-22T10:04:40.481Z,26.53
2019-04-22T10:05:41.094Z,26.86
2019-04-22T10:06:39.430Z,27.10
2019-04-22T10:07:41.528Z,27.23
2019-04-22T10:08:33.883Z,27.35
2019-04-22T10:10:00.217Z,27.35
2019-04-22T10:10:41.470Z,27.08
2019-04-22T10:11:42.283Z,27.07
2019-04-22T10:13:41.684Z,27.13
2019-04-22T10:14:39.675Z,27.05
2019-04-22T10:15:39.659Z,26.92
2019-04-22T10:17:36.734Z,26.79
2019-04-22T10:18:38.725Z,26.82
2019-04-22T10:19:43.880Z,27.00
2019-04-22T10:20:38.184Z,27.25
2019-04-22T10:21:44.640Z,27.40
2019-04-22T10:23:41.665Z,27.34
2019-04-22T10:24:38.834Z,27.18
2019-04-22T10:25:36.418Z,27.13
2019-04-22T10:26:39.857Z,27.16
2019-04-22T10:27:46.267Z,27.28
2019-04-22T10:28:44.621Z,27.63
2019-04-22T10:29:43.616Z,28.12
2019-04-22T10:30:44.615Z,28.65
2019-04-22T10:32:37.643Z,29.22
2019-04-22T10:33:31.916Z,29.35
2019-04-22T10:34:27.038Z,29.34
2019-04-22T10:35:18.639Z,29.30
2019-04-22T10:36:15.111Z,29.03
2019-04-22T10:37:16.997Z,28.84
2019-04-22T10:38:14.434Z,28.74
2019-04-22T10:39:13.997Z,28.87
2019-04-22T10:40:15.695Z,28.83
2019-04-22T10:41:14.434Z,28.75
2019-04-22T10:42:15.244Z,28.57
2019-04-22T10:43:15.006Z,28.52
2019-04-22T10:44:15.308Z,28.40
2019-04-22T10:45:14.565Z,28.23
2019-04-22T10:46:13.999Z,28.10
2019-04-22T10:47:14.083Z,28.03
2019-04-22T10:48:14.556Z,27.86
2019-04-22T10:49:13.987Z,27.57
2019-04-22T10:50:14.430Z,27.16
2019-04-22T10:51:14.774Z,27.15
2019-04-22T10:52:16.387Z,27.08
2019-04-22T10:53:15.328Z,27.13
2019-04-22T10:54:13.982Z,27.22
2019-04-22T10:55:13.970Z,27.15
2019-04-22T10:56:14.874Z,27.05
2019-04-22T10:57:14.138Z,27.04
2019-04-22T10:58:14.998Z,27.03
2019-04-22T10:59:14.382Z,27.04
2019-04-22T11:00:15.441Z,26.97
2019-04-22T11:01:14.005Z,26.85
2019-04-22T11:02:13.959Z,26.49
2019-04-22T11:03:14.167Z,26.15
2019-04-22T11:04:14.997Z,25.98
2019-04-22T11:05:14.493Z,25.89
2019-04-22T11:06:15.055Z,25.88
2019-04-22T11:07:14.999Z,25.98
2019-04-22T11:08:23.092Z,26.23
2019-04-22T11:09:14.237Z,26.46
2019-04-22T11:10:27.777Z,26.81
2019-04-22T11:11:26.518Z,27.16
2019-04-22T11:12:19.266Z,27.38
2019-04-22T11:13:13.923Z,27.63
2019-04-22T11:14:14.862Z,27.71
2019-04-22T11:15:13.948Z,27.81
2019-04-22T11:16:13.993Z,27.91
2019-04-22T11:17:15.508Z,28.06
2019-04-22T11:18:13.908Z,28.22
2019-04-22T11:19:14.026Z,28.52
2019-04-22T11:20:13.904Z,28.75
2019-04-22T11:21:13.900Z,29.00
2019-04-22T11:22:20.702Z,28.83
2019-04-22T11:23:14.377Z,28.68
2019-04-22T11:24:14.889Z,28.60
2019-04-22T11:25:13.971Z,28.82
2019-04-22T11:26:13.902Z,28.92
2019-04-22T11:27:14.914Z,29.10
2019-04-22T11:28:13.912Z,29.02
2019-04-22T11:29:14.087Z,28.83
2019-04-22T11:30:17.127Z,28.78
2019-04-22T11:31:14.738Z,28.60
2019-04-22T11:32:14.848Z,28.50
2019-04-22T11:33:14.290Z,28.41
2019-04-22T11:34:15.123Z,28.46
2019-04-22T11:35:13.974Z,28.62
2019-04-22T11:36:13.881Z,28.59
2019-04-22T11:37:14.694Z,28.70
2019-04-22T11:38:14.992Z,28.64
2019-04-22T11:39:16.872Z,28.46
2019-04-22T11:40:23.620Z,28.15
2019-04-22T11:41:14.758Z,28.01
2019-04-22T11:42:14.113Z,27.93
2019-04-22T11:43:14.600Z,27.91
2019-04-22T11:44:15.083Z,28.08
2019-04-22T11:45:14.959Z,28.19
2019-04-22T11:46:13.868Z,28.25
2019-04-22T11:47:15.124Z,28.18
2019-04-22T11:48:15.293Z,28.18
2019-04-22T11:49:14.142Z,28.12
2019-04-22T11:50:13.859Z,28.03
2019-04-22T11:51:14.078Z,27.97
2019-04-22T11:52:16.420Z,27.75
2019-04-22T11:53:13.854Z,27.48
2019-04-22T11:54:14.724Z,27.44
2019-04-22T11:55:15.036Z,27.33
2019-04-22T11:56:13.837Z,27.22
2019-04-22T11:57:15.134Z,27.03
2019-04-22T11:58:14.894Z,26.85
2019-04-22T11:59:15.072Z,26.71
2019-04-22T12:00:14.692Z,26.56
2019-04-22T12:01:14.906Z,26.46
2019-04-22T12:02:16.100Z,26.31
2019-04-22T12:03:14.753Z,26.11
2019-04-22T12:04:13.922Z,26.11
2019-04-22T12:05:14.255Z,26.11
2019-04-22T12:06:13.813Z,26.06
2019-04-22T12:07:15.050Z,26.01
2019-04-22T12:08:15.305Z,25.88
2019-04-22T12:09:15.247Z,25.88
2019-04-22T12:10:23.066Z,25.88
2019-04-22T12:11:13.820Z,25.88
2019-04-22T12:12:14.012Z,25.93
2019-04-22T12:13:13.821Z,25.95
2019-04-22T12:14:13.968Z,26.10
2019-04-22T12:15:15.083Z,26.24
2019-04-22T12:16:13.794Z,26.61
2019-04-22T12:17:13.951Z,27.01
2019-04-22T12:18:15.166Z,27.44
2019-04-22T12:19:13.773Z,27.58
2019-04-22T12:20:14.585Z,27.72
2019-04-22T12:21:15.170Z,28.06
2019-04-22T12:22:15.240Z,28.37
2019-04-22T12:23:14.822Z,28.60
2019-04-22T12:24:15.120Z,28.77
2019-04-22T12:25:28.028Z,28.83
2019-04-22T12:26:16.803Z,28.82
2019-04-22T12:27:14.861Z,28.94
2019-04-22T12:28:15.093Z,29.22
2019-04-22T12:29:15.153Z,29.50
2019-04-22T12:30:14.801Z,29.80
2019-04-22T12:31:13.769Z,29.96
2019-04-22T12:32:13.891Z,29.96
2019-04-22T12:33:14.973Z,29.83
2019-04-22T12:34:15.317Z,29.84
2019-04-22T12:35:13.896Z,29.79
2019-04-22T12:36:14.960Z,29.55
2019-04-22T12:37:17.393Z,29.52
2019-04-22T12:38:15.124Z,29.50
2019-04-22T12:39:13.858Z,29.53
2019-04-22T12:40:25.912Z,29.50
2019-04-22T12:41:14.460Z,29.47
2019-04-22T12:42:15.082Z,29.43
2019-04-22T12:43:16.209Z,29.34
2019-04-22T12:44:15.007Z,29.21
2019-04-22T12:45:13.978Z,29.15
2019-04-22T12:46:14.463Z,29.13
2019-04-22T12:47:14.906Z,28.90
2019-04-22T12:48:14.983Z,28.78
2019-04-22T12:49:14.289Z,28.64
2019-04-22T12:50:20.483Z,28.53
2019-04-22T12:51:15.220Z,28.28
2019-04-22T12:52:24.496Z,28.10
2019-04-22T12:53:16.522Z,27.85
2019-04-22T12:54:15.175Z,27.72
2019-04-22T12:55:14.228Z,27.58
2019-04-22T12:56:15.209Z,27.50
2019-04-22T12:57:14.737Z,27.43
2019-04-22T12:58:13.914Z,27.35
2019-04-22T12:59:14.047Z,27.19
2019-04-22T13:00:13.780Z,26.93
2019-04-22T13:01:14.928Z,26.63
2019-04-22T13:02:15.386Z,26.33
2019-04-22T13:03:13.916Z,25.93
2019-04-22T13:04:17.262Z,25.73
2019-04-22T13:05:14.307Z,25.59
2019-04-22T13:06:14.238Z,25.58
2019-04-22T13:07:13.784Z,25.61
2019-04-22T13:08:13.953Z,25.59
2019-04-22T13:09:14.838Z,25.55
2019-04-22T13:10:13.947Z,25.48
2019-04-22T13:11:17.975Z,25.49
2019-04-22T13:12:15.138Z,25.63
2019-04-22T13:13:15.323Z,25.86
2019-04-22T13:14:14.947Z,26.07
2019-04-22T13:15:14.152Z,26.23
2019-04-22T13:16:15.256Z,26.30
2019-04-22T13:17:15.320Z,26.26
2019-04-22T13:18:27.039Z,26.22
2019-04-22T13:19:17.138Z,26.18
2019-04-22T13:20:16.149Z,26.06
2019-04-22T13:21:14.972Z,25.86
2019-04-22T13:22:14.638Z,25.63
2019-04-22T13:23:13.895Z,25.59
2019-04-22T13:24:15.067Z,25.54
2019-04-22T13:25:13.719Z,25.48
2019-04-22T13:26:15.114Z,25.34
2019-04-22T13:27:15.003Z,25.25
2019-04-22T13:28:15.368Z,25.11
2019-04-22T13:29:15.049Z,25.01
2019-04-22T13:30:14.508Z,25.03
2019-04-22T13:31:13.961Z,25.07
2019-04-22T13:32:13.702Z,25.11
2019-04-22T13:33:14.868Z,25.18
2019-04-22T13:34:25.477Z,25.18
2019-04-22T13:35:14.934Z,25.12
2019-04-22T13:36:13.672Z,25.04
2019-04-22T13:37:14.804Z,24.93
2019-04-22T13:38:13.743Z,24.88
2019-04-22T13:39:13.695Z,24.94
2019-04-22T13:40:14.910Z,25.00
2019-04-22T13:41:28.265Z,25.04
2019-04-22T13:42:19.317Z,25.14
2019-04-22T13:43:13.651Z,25.39
2019-04-22T13:44:14.623Z,25.71
2019-04-22T13:45:13.829Z,25.99
2019-04-22T13:46:14.499Z,26.15
2019-04-22T13:47:30.762Z,26.22
2019-04-22T13:49:56.614Z,26.37
2019-04-22T13:50:56.299Z,26.48
2019-04-22T13:51:45.240Z,26.61
2019-04-22T13:52:48.607Z,26.79
2019-04-22T13:54:00.252Z,26.31
2019-04-22T13:55:48.174Z,26.97
2019-04-22T13:56:32.837Z,26.89
2019-04-22T13:57:37.098Z,26.76
2019-04-22T13:58:29.095Z,26.66
2019-04-22T13:59:23.052Z,26.55
2019-04-22T14:00:13.781Z,26.51
2019-04-22T14:01:14.667Z,26.48
2019-04-22T14:02:14.648Z,26.36
2019-04-22T14:03:13.605Z,26.34
2019-04-22T14:04:14.477Z,26.37
2019-04-22T14:05:14.863Z,26.44
2019-04-22T14:06:13.602Z,26.46
2019-04-22T14:07:14.745Z,26.46
2019-04-22T14:08:14.573Z,26.44
2019-04-22T14:09:13.774Z,26.36
2019-04-22T14:10:14.195Z,26.19
2019-04-22T14:11:23.009Z,26.19
2019-04-22T14:12:15.801Z,26.31
2019-04-22T14:13:14.034Z,26.48
2019-04-22T14:14:13.585Z,26.68
2019-04-22T14:15:13.904Z,26.82
2019-04-22T14:16:15.132Z,26.86
2019-04-22T14:17:13.658Z,26.73
2019-04-22T14:18:14.897Z,26.68
2019-04-22T14:19:14.039Z,26.60
2019-04-22T14:20:15.017Z,26.52
2019-04-22T14:21:14.882Z,26.37
2019-04-22T14:22:13.852Z,26.26
2019-04-22T14:23:15.257Z,26.10
2019-04-22T14:24:14.311Z,25.93
2019-04-22T14:25:14.583Z,25.93
2019-04-22T14:26:13.582Z,25.99
2019-04-22T14:27:25.579Z,26.03